Other Surface Observations
Issued by NWS Great Falls, MT

Home | Current Version | Previous Version | Text Only | Print | Product List | Glossary On
Versions: 1 2 3 4 5 6 7 8 9 10 11 12 13 14 15 16 17 18 19 20 21 22 23 24 25 26 27 28 29 30 31 32 33 34 35 36 37 38 39 40 41 42 43 44 45 46 47 48 49 50
000
SXUS55 KTFX 270252
OSOTFX
AREA AWOS OBSERVATIONS
NATIONAL WEATHER SERVICE GREAT FALLS MT
0850 PM MDT THU MAR 26 2015

METAR KPWD 270245Z AUTO 13006KT 10SM 04/M01 A3010 RMK PLENTYWOOD
METAR KPO1 270245Z AUTO 09008KT 04/01 A3010 RMK POPLAR
METAR K1S3 270245Z AUTO 18003KT 10SM 11/04 A3004 RMK FORSYTH
METAR KS71 270245Z AUTO 27006KT 10SM 13/03 A3000 RMK CHINOOK
METAR K6S0 270245Z AUTO 24017KT 10SM 13/02 A3016 RMK BIG TIMBER
METAR K79S 270245Z AUTO 26012G16KT 10SM 15/02 A3008 RMK FORT BENTON
METAR K38S 270245Z AUTO 36004KT 10SM 11/03 A3032 RMK DEER LODGE
METAR K3U3 270245Z AUTO 26011KT 10SM 11/02 A3029 RMK ANACONDA
METAR K6S5 270245Z AUTO 24002KT 10SM 10/03 A3029 RMK HAMILTON
METAR KS59 270245Z AUTO 00000KT 10SM 09/04 A3023 RMK LIBBY
METAR K88M 270245Z AUTO 13010KT 10SM 12/06 A3023 RMK EUREKA



USA.gov is the U.S. government's official web portal to all federal, state and local government web resources and services.